createdAt,value
2022-11-26T00:00:00.529Z,78.18
2022-11-26T00:01:03.084Z,80.72
2022-11-26T00:02:25.162Z,67.30
2022-11-26T00:03:27.623Z,59.67
2022-11-26T00:04:29.947Z,60.70
2022-11-26T00:05:32.687Z,56.33
2022-11-26T00:06:37.704Z,51.65
2022-11-26T00:07:41.120Z,51.90
2022-11-26T00:08:43.457Z,50.83
2022-11-26T00:09:45.762Z,48.97
2022-11-26T00:10:52.132Z,48.80
2022-11-26T00:11:54.407Z,47.75
2022-11-26T00:12:57.803Z,44.65
2022-11-26T00:14:00.144Z,46.10
2022-11-26T00:15:19.235Z,44.75
2022-11-26T00:16:21.604Z,43.42
2022-11-26T00:17:24.189Z,40.67
2022-11-26T00:18:26.900Z,39.42
2022-11-26T00:19:29.256Z,41.50
2022-11-26T00:20:31.906Z,40.58
2022-11-26T00:21:37.398Z,40.75
2022-11-26T00:22:46.370Z,37.95
2022-11-26T00:23:49.143Z,35.55
2022-11-26T00:24:52.360Z,36.70
2022-11-26T00:26:01.353Z,32.80
2022-11-26T00:27:03.700Z,31.48
2022-11-26T00:28:34.518Z,30.67
2022-11-26T00:29:36.779Z,28.20
2022-11-26T00:30:39.036Z,28.25
2022-11-26T00:31:41.356Z,25.98
2022-11-26T00:32:43.763Z,27.55
2022-11-26T00:33:46.075Z,24.35
2022-11-26T00:34:48.440Z,21.83
2022-11-26T00:35:55.743Z,23.80
2022-11-26T00:36:58.122Z,22.42
2022-11-26T00:38:00.416Z,20.35
2022-11-26T00:39:11.408Z,19.95
2022-11-26T00:40:40.823Z,19.52
2022-11-26T00:41:49.813Z,18.20
2022-11-26T00:42:54.501Z,18.17
2022-11-26T00:44:00.025Z,15.77
2022-11-26T00:45:02.316Z,16.48
2022-11-26T00:46:04.736Z,16.48
2022-11-26T00:47:08.946Z,15.65
2022-11-26T00:48:11.445Z,14.32
2022-11-26T00:49:14.214Z,14.65
2022-11-26T00:50:19.082Z,14.55
2022-11-26T00:51:24.746Z,14.30
2022-11-26T00:52:34.543Z,15.05
2022-11-26T00:53:36.868Z,14.05
2022-11-26T00:54:39.418Z,14.25
2022-11-26T00:55:45.371Z,13.32
2022-11-26T00:56:49.014Z,14.38
2022-11-26T00:57:51.262Z,15.25
2022-11-26T00:58:53.587Z,13.90
2022-11-26T00:59:55.832Z,14.05
2022-11-26T01:00:59.864Z,14.48
2022-11-26T01:02:02.230Z,14.88
2022-11-26T01:03:04.518Z,14.55
2022-11-26T01:04:07.038Z,14.35
2022-11-26T01:05:09.372Z,13.68
2022-11-26T01:06:24.950Z,13.02
2022-11-26T01:07:27.321Z,15.52
2022-11-26T01:08:29.652Z,14.65
2022-11-26T01:09:32.113Z,16.23
2022-11-26T01:10:34.352Z,16.50
2022-11-26T01:11:36.647Z,16.83
2022-11-26T01:12:38.903Z,18.17
2022-11-26T01:13:42.651Z,16.63
2022-11-26T01:14:45.015Z,15.68
2022-11-26T01:15:47.435Z,16.15
2022-11-26T01:16:51.170Z,17.13
2022-11-26T01:17:53.519Z,16.77
2022-11-26T01:18:57.851Z,16.02
2022-11-26T01:20:00.130Z,15.80
2022-11-26T01:21:02.443Z,15.60
2022-11-26T01:22:04.724Z,15.93
2022-11-26T01:23:10.679Z,15.73
2022-11-26T01:24:12.954Z,15.73
2022-11-26T01:25:15.323Z,16.98
2022-11-26T01:26:28.876Z,14.52
2022-11-26T01:27:31.120Z,15.57
2022-11-26T01:28:33.538Z,15.73
2022-11-26T01:29:35.767Z,18.20
2022-11-26T01:30:38.479Z,15.80
2022-11-26T01:31:40.842Z,15.93
2022-11-26T01:32:43.397Z,17.88
2022-11-26T01:33:46.248Z,22.10
2022-11-26T01:34:48.523Z,23.13
2022-11-26T01:35:50.732Z,20.48
2022-11-26T01:36:52.990Z,18.92
2022-11-26T01:37:55.867Z,19.83
2022-11-26T01:39:00.895Z,18.75
2022-11-26T01:40:04.377Z,19.83
2022-11-26T01:41:26.866Z,17.73
2022-11-26T01:42:29.069Z,16.55
2022-11-26T01:43:41.518Z,16.45
2022-11-26T01:44:43.840Z,15.80
2022-11-26T01:45:46.161Z,16.20
2022-11-26T01:46:49.787Z,14.23
2022-11-26T01:47:52.085Z,15.23
2022-11-26T01:48:55.666Z,15.68
2022-11-26T01:50:31.787Z,13.10
2022-11-26T01:51:34.053Z,12.95
2022-11-26T01:52:36.584Z,13.30
2022-11-26T01:53:45.612Z,12.32
2022-11-26T01:54:48.740Z,13.18
2022-11-26T01:55:58.801Z,12.13
2022-11-26T01:57:17.960Z,11.20
2022-11-26T01:58:39.523Z,11.90
2022-11-26T01:59:45.982Z,13.45
2022-11-26T02:00:50.288Z,12.18
2022-11-26T02:01:58.909Z,13.15
2022-11-26T02:03:02.232Z,13.82
2022-11-26T02:04:18.091Z,11.57
2022-11-26T02:05:24.931Z,13.10
2022-11-26T02:06:32.716Z,11.25
2022-11-26T02:07:36.246Z,12.13
2022-11-26T02:08:38.748Z,13.38
2022-11-26T02:09:41.180Z,13.05
2022-11-26T02:10:43.475Z,12.30
2022-11-26T02:11:46.114Z,14.07
2022-11-26T02:12:49.096Z,12.40
2022-11-26T02:13:55.750Z,13.00
2022-11-26T02:15:04.064Z,14.43
2022-11-26T02:16:19.742Z,14.43
2022-11-26T02:17:29.453Z,13.40
2022-11-26T02:18:37.779Z,15.00
2022-11-26T02:20:03.374Z,13.45
2022-11-26T02:21:26.057Z,15.43
2022-11-26T02:22:42.311Z,12.60
2022-11-26T02:24:04.179Z,12.52
2022-11-26T02:25:28.535Z,13.07
2022-11-26T02:27:08.820Z,12.88
2022-11-26T02:28:38.251Z,14.40
2022-11-26T02:30:08.096Z,14.63
2022-11-26T02:31:22.019Z,20.13
2022-11-26T02:32:37.731Z,17.65
2022-11-26T02:33:53.654Z,17.42
2022-11-26T02:35:06.593Z,18.05
2022-11-26T02:36:41.867Z,18.77
2022-11-26T02:37:51.686Z,17.98
2022-11-26T02:38:53.948Z,20.55
2022-11-26T02:39:57.819Z,20.25
2022-11-26T02:41:00.686Z,19.30
2022-11-26T02:42:04.423Z,19.05
2022-11-26T02:43:06.708Z,17.83
2022-11-26T02:44:09.276Z,18.08
2022-11-26T02:45:24.598Z,17.50
2022-11-26T02:46:26.882Z,16.92
2022-11-26T02:47:30.219Z,16.58
2022-11-26T02:48:36.840Z,17.33
2022-11-26T02:49:41.207Z,18.02
2022-11-26T02:50:47.528Z,17.88
2022-11-26T02:51:54.092Z,17.38
2022-11-26T02:52:58.569Z,17.48
2022-11-26T02:54:01.746Z,18.60
2022-11-26T02:55:07.689Z,17.95
2022-11-26T02:56:17.226Z,15.32
2022-11-26T02:57:23.103Z,16.00
2022-11-26T02:58:25.408Z,17.25
2022-11-26T02:59:28.418Z,16.80
2022-11-26T03:00:33.282Z,19.63
2022-11-26T03:01:45.719Z,19.33
2022-11-26T03:02:50.730Z,17.50
2022-11-26T03:03:55.143Z,18.48
2022-11-26T03:05:00.216Z,19.85
2022-11-26T03:06:07.716Z,17.48
2022-11-26T03:07:13.003Z,17.63
2022-11-26T03:08:16.593Z,18.58
2022-11-26T03:09:22.275Z,16.38
2022-11-26T03:10:26.782Z,17.08
2022-11-26T03:11:29.181Z,20.08
2022-11-26T03:12:31.457Z,23.77
2022-11-26T03:13:33.929Z,23.60
2022-11-26T03:14:36.350Z,23.45
2022-11-26T03:15:39.009Z,20.92
2022-11-26T03:16:41.306Z,22.95
2022-11-26T03:17:43.659Z,21.15
2022-11-26T03:18:45.986Z,21.45
2022-11-26T03:19:48.296Z,19.02
2022-11-26T03:20:52.534Z,20.65
2022-11-26T03:21:54.930Z,19.23
2022-11-26T03:22:57.223Z,17.90
2022-11-26T03:24:00.244Z,17.63
2022-11-26T03:25:02.778Z,18.35
2022-11-26T03:26:05.047Z,19.52
2022-11-26T03:27:07.558Z,19.48
2022-11-26T03:28:09.853Z,20.73
2022-11-26T03:29:12.141Z,20.45
2022-11-26T03:30:14.520Z,18.85
2022-11-26T03:31:16.932Z,16.15
2022-11-26T03:32:19.241Z,18.45
2022-11-26T03:33:21.521Z,16.05
2022-11-26T03:34:24.241Z,17.20
2022-11-26T03:35:26.458Z,16.88
2022-11-26T03:36:28.753Z,15.90
2022-11-26T03:37:31.422Z,16.05
2022-11-26T03:38:33.692Z,17.15
2022-11-26T03:39:35.954Z,15.68
2022-11-26T03:40:38.248Z,16.27
2022-11-26T03:41:44.193Z,15.75
2022-11-26T03:42:46.565Z,16.15
2022-11-26T03:43:49.228Z,16.65
2022-11-26T03:44:51.491Z,15.27
2022-11-26T03:45:54.150Z,15.68
2022-11-26T03:46:56.473Z,17.65
2022-11-26T03:47:58.835Z,16.50
2022-11-26T03:49:01.088Z,18.40
2022-11-26T03:50:04.688Z,18.13
2022-11-26T03:51:07.340Z,16.50
2022-11-26T03:52:09.711Z,20.00
2022-11-26T03:53:12.048Z,19.85
2022-11-26T03:54:14.697Z,19.98
2022-11-26T03:55:17.788Z,19.95
2022-11-26T03:56:20.092Z,17.45
2022-11-26T03:57:22.412Z,20.77
2022-11-26T03:58:24.722Z,19.20
2022-11-26T03:59:27.372Z,18.35
2022-11-26T04:00:29.702Z,17.88
2022-11-26T04:01:32.029Z,21.02
2022-11-26T04:02:35.016Z,16.45
2022-11-26T04:03:38.249Z,18.33
2022-11-26T04:04:40.650Z,17.75
2022-11-26T04:05:43.092Z,16.63
2022-11-26T04:06:45.402Z,17.10
2022-11-26T04:07:47.733Z,16.85
2022-11-26T04:08:50.128Z,18.10
2022-11-26T04:09:52.382Z,15.63
2022-11-26T04:10:54.679Z,18.20
2022-11-26T04:11:57.117Z,18.55
2022-11-26T04:12:59.518Z,19.33
2022-11-26T04:14:01.950Z,18.75
2022-11-26T04:15:04.621Z,20.98
2022-11-26T04:16:07.728Z,18.63
2022-11-26T04:17:10.070Z,21.88
2022-11-26T04:18:12.302Z,21.92
2022-11-26T04:19:14.550Z,24.45
2022-11-26T04:20:17.155Z,22.55
2022-11-26T04:21:19.466Z,23.52
2022-11-26T04:22:21.892Z,22.90
2022-11-26T04:23:24.416Z,21.75
2022-11-26T04:24:26.843Z,24.55
2022-11-26T04:25:29.108Z,23.40
2022-11-26T04:26:31.408Z,20.48
2022-11-26T04:27:34.017Z,20.88
2022-11-26T04:28:36.336Z,20.63
2022-11-26T04:29:38.714Z,18.20
2022-11-26T04:30:41.451Z,21.63
2022-11-26T04:31:43.911Z,21.05
2022-11-26T04:32:46.311Z,20.02
2022-11-26T04:33:48.610Z,19.90
2022-11-26T04:34:51.019Z,21.10
2022-11-26T04:35:53.882Z,22.92
2022-11-26T04:36:56.409Z,24.15
2022-11-26T04:37:58.673Z,24.27
2022-11-26T04:39:00.959Z,24.70
2022-11-26T04:40:03.734Z,25.05
2022-11-26T04:41:06.294Z,24.35
2022-11-26T04:42:08.606Z,24.52
2022-11-26T04:43:10.942Z,25.42
2022-11-26T04:44:13.281Z,25.80
2022-11-26T04:45:15.637Z,25.33
2022-11-26T04:46:17.924Z,27.58
2022-11-26T04:47:20.161Z,24.42
2022-11-26T04:48:22.657Z,23.95
2022-11-26T04:49:25.155Z,22.33
2022-11-26T04:50:27.484Z,23.50
2022-11-26T04:51:29.829Z,21.55
2022-11-26T04:52:32.111Z,22.55
2022-11-26T04:53:34.467Z,22.17
2022-11-26T04:54:37.081Z,22.70
2022-11-26T04:55:39.685Z,22.75
2022-11-26T04:56:42.002Z,20.27
2022-11-26T04:57:48.858Z,23.42
2022-11-26T04:58:51.318Z,22.15
2022-11-26T04:59:53.574Z,24.67
2022-11-26T05:00:55.956Z,21.83
2022-11-26T05:01:59.660Z,21.05
2022-11-26T05:03:01.954Z,23.85
2022-11-26T05:04:04.469Z,19.00
2022-11-26T05:05:07.386Z,19.65
2022-11-26T05:06:10.844Z,22.27
2022-11-26T05:07:13.177Z,19.52
2022-11-26T05:08:15.533Z,20.95
2022-11-26T05:09:17.850Z,20.77
2022-11-26T05:10:20.142Z,20.40
2022-11-26T05:11:22.432Z,21.77
2022-11-26T05:12:24.735Z,21.20
2022-11-26T05:13:27.210Z,22.30
2022-11-26T05:14:29.556Z,19.27
2022-11-26T05:15:31.779Z,22.35
2022-11-26T05:16:34.337Z,22.55
2022-11-26T05:17:36.754Z,20.55
2022-11-26T05:18:39.037Z,20.92
2022-11-26T05:19:41.382Z,21.05
2022-11-26T05:20:43.676Z,21.10
2022-11-26T05:21:46.043Z,24.45
2022-11-26T05:22:48.342Z,21.92
2022-11-26T05:23:50.665Z,21.52
2022-11-26T05:24:53.785Z,19.90
2022-11-26T05:25:56.080Z,19.00
2022-11-26T05:26:58.402Z,19.35
2022-11-26T05:28:00.820Z,20.38
2022-11-26T05:29:03.162Z,19.38
2022-11-26T05:30:06.067Z,22.98
2022-11-26T05:31:08.398Z,23.80
2022-11-26T05:32:10.701Z,23.67
2022-11-26T05:33:13.046Z,24.98
2022-11-26T05:34:15.386Z,23.30
2022-11-26T05:35:17.749Z,22.80
2022-11-26T05:36:20.058Z,21.75
2022-11-26T05:37:22.328Z,23.55
2022-11-26T05:38:24.690Z,24.65
2022-11-26T05:39:27.059Z,22.00
2022-11-26T05:40:29.350Z,21.35
2022-11-26T05:41:31.690Z,19.83
2022-11-26T05:42:33.939Z,21.60
2022-11-26T05:43:36.182Z,22.90
2022-11-26T05:44:38.842Z,20.60
2022-11-26T05:45:41.390Z,19.70
2022-11-26T05:46:43.756Z,19.55
2022-11-26T05:47:48.802Z,19.33
2022-11-26T05:48:51.062Z,18.65
2022-11-26T05:49:53.529Z,20.92
2022-11-26T05:50:59.945Z,19.90
2022-11-26T05:52:02.239Z,21.38
2022-11-26T05:53:05.005Z,22.20
2022-11-26T05:54:07.643Z,21.45
2022-11-26T05:55:10.677Z,18.98
2022-11-26T05:56:12.996Z,18.23
2022-11-26T05:57:15.270Z,21.50
2022-11-26T05:58:17.655Z,21.55
2022-11-26T05:59:19.906Z,19.80
2022-11-26T06:00:22.366Z,20.50
2022-11-26T06:01:24.612Z,20.38
2022-11-26T06:02:27.201Z,19.60
2022-11-26T06:03:29.669Z,20.08
2022-11-26T06:04:32.096Z,21.60
2022-11-26T06:05:34.385Z,19.13
2022-11-26T06:06:36.737Z,18.73
2022-11-26T06:07:43.292Z,18.15
2022-11-26T06:08:47.171Z,19.25
2022-11-26T06:09:49.440Z,17.10
2022-11-26T06:10:51.977Z,16.88
2022-11-26T06:11:54.292Z,15.48
2022-11-26T06:12:56.731Z,16.00
2022-11-26T06:13:59.021Z,15.50
2022-11-26T06:15:01.818Z,15.70
2022-11-26T06:16:04.220Z,16.35
2022-11-26T06:17:06.526Z,15.68
2022-11-26T06:18:08.941Z,15.43
2022-11-26T06:19:12.214Z,16.05
2022-11-26T06:20:14.745Z,15.95
2022-11-26T06:21:17.029Z,15.38
2022-11-26T06:22:19.418Z,16.85
2022-11-26T06:23:21.867Z,16.17
2022-11-26T06:24:24.216Z,15.65
2022-11-26T06:25:26.594Z,14.30
2022-11-26T06:26:28.857Z,15.45
2022-11-26T06:27:33.710Z,16.80
2022-11-26T06:28:36.163Z,15.05
2022-11-26T06:29:38.434Z,14.32
2022-11-26T06:30:40.701Z,13.05
2022-11-26T06:31:43.020Z,13.68
2022-11-26T06:32:45.461Z,13.32
2022-11-26T06:33:47.948Z,12.65
2022-11-26T06:34:53.992Z,13.73
2022-11-26T06:36:01.226Z,11.40
2022-11-26T06:37:04.129Z,12.43
2022-11-26T06:38:06.385Z,12.65
2022-11-26T06:39:10.461Z,12.52
2022-11-26T06:40:17.795Z,14.18
2022-11-26T06:41:20.195Z,11.77
2022-11-26T06:42:22.674Z,10.57
2022-11-26T06:43:24.954Z,12.13
2022-11-26T06:44:27.195Z,10.65
2022-11-26T06:45:29.704Z,11.52
2022-11-26T06:46:34.629Z,11.00
2022-11-26T06:47:36.996Z,12.63
2022-11-26T06:48:40.251Z,10.10
2022-11-26T06:49:42.936Z,12.60
2022-11-26T06:50:45.168Z,12.65
2022-11-26T06:51:47.501Z,12.77
2022-11-26T06:52:53.429Z,12.40
2022-11-26T06:53:55.773Z,12.40
2022-11-26T06:54:58.070Z,11.80
2022-11-26T06:56:13.560Z,11.60
2022-11-26T06:57:20.266Z,9.90
2022-11-26T06:58:25.014Z,13.75
2022-11-26T06:59:27.277Z,11.60
2022-11-26T07:00:29.579Z,10.48
2022-11-26T07:01:31.946Z,11.90
2022-11-26T07:02:34.492Z,11.05
2022-11-26T07:03:37.229Z,10.63
2022-11-26T07:04:39.901Z,10.80
2022-11-26T07:05:42.222Z,10.80
2022-11-26T07:06:45.893Z,10.43
2022-11-26T07:07:48.254Z,9.52
2022-11-26T07:08:51.920Z,10.15
2022-11-26T07:09:54.187Z,12.10
2022-11-26T07:10:56.481Z,11.60
2022-11-26T07:11:58.920Z,10.95
2022-11-26T07:13:01.283Z,12.10
2022-11-26T07:14:03.850Z,11.65
2022-11-26T07:15:06.766Z,11.10
2022-11-26T07:16:09.494Z,11.48
2022-11-26T07:17:11.765Z,10.45
2022-11-26T07:18:14.066Z,10.73
2022-11-26T07:19:16.507Z,10.43
2022-11-26T07:20:18.885Z,10.60
2022-11-26T07:21:22.498Z,9.68
2022-11-26T07:22:25.143Z,11.40
2022-11-26T07:23:27.406Z,9.40
2022-11-26T07:24:29.804Z,9.90
2022-11-26T07:25:32.199Z,8.85
2022-11-26T07:26:34.444Z,9.70
2022-11-26T07:27:36.687Z,7.85
2022-11-26T07:28:39.254Z,7.80
2022-11-26T07:29:41.542Z,8.60
2022-11-26T07:30:43.893Z,8.38
2022-11-26T07:31:46.221Z,8.70
2022-11-26T07:32:48.500Z,8.63
2022-11-26T07:33:53.337Z,8.60
2022-11-26T07:34:55.690Z,10.20
2022-11-26T07:36:01.622Z,8.48
2022-11-26T07:37:03.993Z,8.95
2022-11-26T07:38:06.296Z,8.90
2022-11-26T07:39:11.143Z,8.60
2022-11-26T07:40:13.887Z,7.10
2022-11-26T07:41:20.501Z,7.75
2022-11-26T07:42:22.918Z,8.10
2022-11-26T07:43:25.365Z,9.40
2022-11-26T07:44:27.713Z,8.70
2022-11-26T07:45:30.055Z,7.32
2022-11-26T07:46:32.398Z,8.23
2022-11-26T07:47:34.720Z,8.65
2022-11-26T07:48:39.264Z,8.23
2022-11-26T07:49:41.607Z,7.78
2022-11-26T07:50:45.022Z,8.38
2022-11-26T07:51:47.333Z,7.18
2022-11-26T07:52:52.849Z,8.48
2022-11-26T07:53:56.742Z,7.40
2022-11-26T07:54:59.023Z,9.45
2022-11-26T07:56:06.163Z,9.25
2022-11-26T07:57:08.414Z,10.32
2022-11-26T07:58:10.811Z,9.45
2022-11-26T07:59:13.081Z,9.15
2022-11-26T08:00:16.009Z,8.27
2022-11-26T08:01:29.835Z,8.15
2022-11-26T08:02:32.289Z,7.30
2022-11-26T08:03:38.345Z,8.23
2022-11-26T08:04:41.331Z,8.10
2022-11-26T08:05:44.770Z,6.45
2022-11-26T08:06:47.048Z,7.25
2022-11-26T08:07:49.450Z,8.15
2022-11-26T08:08:51.953Z,7.57
2022-11-26T08:09:54.248Z,6.93
2022-11-26T08:10:56.542Z,7.28
2022-11-26T08:11:58.913Z,7.03
2022-11-26T08:13:01.637Z,6.55
2022-11-26T08:14:10.171Z,7.15
2022-11-26T08:15:13.666Z,7.30
2022-11-26T08:16:16.703Z,6.63
2022-11-26T08:17:19.191Z,6.20
2022-11-26T08:18:21.411Z,7.20
2022-11-26T08:19:23.864Z,5.47
2022-11-26T08:20:28.998Z,6.70
2022-11-26T08:21:32.087Z,7.70
2022-11-26T08:22:34.448Z,8.20
2022-11-26T08:23:36.887Z,7.97
2022-11-26T08:24:40.120Z,7.50
2022-11-26T08:25:59.521Z,6.70
2022-11-26T08:27:05.240Z,6.60
2022-11-26T08:28:07.765Z,9.48
2022-11-26T08:29:10.074Z,14.27
2022-11-26T08:30:14.431Z,15.45
2022-11-26T08:31:16.943Z,15.10
2022-11-26T08:32:19.454Z,13.23
2022-11-26T08:33:21.724Z,12.35
2022-11-26T08:34:24.031Z,10.10
2022-11-26T08:35:38.848Z,10.70
2022-11-26T08:36:48.765Z,9.68
2022-11-26T08:37:51.087Z,10.07
2022-11-26T08:38:53.394Z,9.52
2022-11-26T08:39:55.722Z,9.52
2022-11-26T08:41:16.013Z,14.13
2022-11-26T08:42:18.408Z,13.70
2022-11-26T08:43:30.823Z,13.45
2022-11-26T08:44:42.594Z,11.50
2022-11-26T08:45:51.338Z,11.23
2022-11-26T08:46:53.620Z,9.50
2022-11-26T08:47:55.847Z,9.82
2022-11-26T08:48:58.435Z,10.15
2022-11-26T08:50:00.691Z,9.68
2022-11-26T08:51:05.883Z,10.02
2022-11-26T08:52:08.130Z,9.20
2022-11-26T08:53:10.402Z,8.05
2022-11-26T08:54:12.771Z,8.73
2022-11-26T08:55:15.121Z,8.60
2022-11-26T08:56:17.483Z,8.40
2022-11-26T08:57:19.880Z,7.65
2022-11-26T08:58:22.199Z,6.97
2022-11-26T08:59:25.349Z,7.57
2022-11-26T09:00:27.923Z,8.88
2022-11-26T09:01:33.061Z,8.05
2022-11-26T09:02:35.497Z,7.28
2022-11-26T09:03:38.014Z,6.40
2022-11-26T09:04:41.644Z,6.38
2022-11-26T09:05:43.987Z,8.52
2022-11-26T09:06:46.329Z,6.78
2022-11-26T09:07:49.161Z,6.88
2022-11-26T09:09:10.534Z,7.30
2022-11-26T09:10:13.307Z,8.60
2022-11-26T09:11:15.565Z,7.00
2022-11-26T09:12:18.226Z,6.72
2022-11-26T09:13:21.385Z,7.45
2022-11-26T09:14:26.706Z,7.70
2022-11-26T09:15:28.964Z,5.45
2022-11-26T09:16:31.747Z,5.70
2022-11-26T09:17:34.011Z,6.55
2022-11-26T09:18:36.333Z,6.70
2022-11-26T09:19:38.663Z,6.38
2022-11-26T09:20:40.951Z,8.10
2022-11-26T09:21:44.265Z,7.43
2022-11-26T09:22:46.509Z,8.30
2022-11-26T09:23:48.952Z,7.47
2022-11-26T09:24:51.241Z,7.25
2022-11-26T09:25:53.477Z,7.57
2022-11-26T09:26:55.751Z,7.40
2022-11-26T09:27:58.069Z,7.10
2022-11-26T09:29:01.182Z,7.70
2022-11-26T09:30:04.338Z,8.13
2022-11-26T09:31:07.253Z,7.78
2022-11-26T09:32:29.699Z,6.95
2022-11-26T09:33:33.056Z,7.30
2022-11-26T09:34:37.050Z,9.18
2022-11-26T09:35:39.547Z,7.55
2022-11-26T09:36:42.542Z,7.05
2022-11-26T09:37:48.745Z,6.88
2022-11-26T09:38:55.125Z,7.60
2022-11-26T09:39:57.433Z,7.35
2022-11-26T09:41:27.636Z,7.22
2022-11-26T09:43:05.475Z,6.20
2022-11-26T09:44:34.150Z,6.28
2022-11-26T09:45:52.713Z,7.80
2022-11-26T09:47:16.939Z,7.15
2022-11-26T09:48:23.625Z,6.55
2022-11-26T09:49:28.307Z,7.32
2022-11-26T09:50:33.405Z,6.15
2022-11-26T09:51:35.902Z,6.85
2022-11-26T09:52:52.333Z,6.32
2022-11-26T09:53:55.133Z,6.03
2022-11-26T09:55:14.436Z,5.93
2022-11-26T09:56:26.877Z,5.80
2022-11-26T09:57:41.163Z,5.25
2022-11-26T09:58:52.241Z,5.95
2022-11-26T09:59:55.782Z,5.80
2022-11-26T10:01:00.334Z,5.70
2022-11-26T10:02:02.760Z,5.82
2022-11-26T10:03:16.026Z,5.88
2022-11-26T10:04:49.775Z,5.38
2022-11-26T10:06:18.111Z,6.38
2022-11-26T10:07:58.450Z,6.80
2022-11-26T10:09:16.812Z,5.35
2022-11-26T10:10:19.576Z,5.30
2022-11-26T10:11:24.462Z,4.32
2022-11-26T10:13:19.060Z,5.00
2022-11-26T10:14:41.762Z,3.70
2022-11-26T10:15:58.635Z,3.88
2022-11-26T10:17:31.332Z,5.70
2022-11-26T10:18:58.769Z,5.65
2022-11-26T10:20:19.487Z,7.15
2022-11-26T10:21:32.327Z,6.53
2022-11-26T10:22:57.586Z,6.82
2022-11-26T10:24:22.978Z,5.88
2022-11-26T10:25:28.906Z,7.15
2022-11-26T10:26:36.063Z,6.78
2022-11-26T10:27:38.741Z,8.20
2022-11-26T10:28:45.166Z,9.43
2022-11-26T10:29:55.576Z,11.57
2022-11-26T10:31:03.105Z,11.00
2022-11-26T10:32:16.000Z,9.73
2022-11-26T10:33:20.387Z,10.07
2022-11-26T10:34:38.683Z,9.02
2022-11-26T10:35:45.272Z,8.27
2022-11-26T10:36:51.019Z,11.65
2022-11-26T10:37:55.845Z,10.82
2022-11-26T10:38:58.290Z,11.05
2022-11-26T10:40:25.963Z,10.15
2022-11-26T10:41:35.334Z,8.82
2022-11-26T10:42:48.506Z,9.80
2022-11-26T10:43:53.402Z,8.68
2022-11-26T10:44:55.936Z,8.23
2022-11-26T10:45:58.185Z,8.45
2022-11-26T10:47:23.927Z,8.13
2022-11-26T10:48:27.568Z,8.90
2022-11-26T10:49:30.693Z,8.80
2022-11-26T10:50:50.768Z,8.40
2022-11-26T10:52:04.183Z,9.65
2022-11-26T10:53:06.887Z,11.95
2022-11-26T10:54:26.575Z,11.85
2022-11-26T10:55:39.588Z,11.85
2022-11-26T10:56:45.240Z,11.63
2022-11-26T10:58:18.296Z,12.43
2022-11-26T10:59:23.288Z,11.82
2022-11-26T11:00:37.870Z,11.75
2022-11-26T11:01:51.292Z,12.13
2022-11-26T11:02:56.811Z,11.40
2022-11-26T11:04:07.712Z,11.85
2022-11-26T11:05:11.912Z,10.43
2022-11-26T11:06:23.765Z,10.40
2022-11-26T11:07:41.262Z,11.68
2022-11-26T11:08:43.739Z,10.13
2022-11-26T11:09:46.089Z,9.23
2022-11-26T11:10:57.982Z,8.75
2022-11-26T11:12:17.950Z,8.50
2022-11-26T11:13:20.487Z,7.00
2022-11-26T11:14:31.763Z,7.13
2022-11-26T11:15:35.603Z,6.85
2022-11-26T11:16:46.149Z,6.50
2022-11-26T11:18:05.237Z,6.05
2022-11-26T11:19:24.550Z,7.90
2022-11-26T11:20:29.131Z,6.38
2022-11-26T11:21:36.353Z,6.40
2022-11-26T11:22:39.183Z,8.00
2022-11-26T11:24:06.968Z,9.75
2022-11-26T11:25:29.568Z,8.30
2022-11-26T11:26:46.737Z,8.57
2022-11-26T11:27:49.614Z,7.13
2022-11-26T11:28:54.546Z,6.85
2022-11-26T11:30:01.949Z,6.25
2022-11-26T11:31:16.376Z,5.97
2022-11-26T11:32:40.771Z,4.85
2022-11-26T11:33:43.759Z,5.25
2022-11-26T11:34:47.372Z,4.68
2022-11-26T11:36:17.827Z,4.60
2022-11-26T11:38:15.461Z,6.00
2022-11-26T11:39:29.732Z,5.78
2022-11-26T11:40:42.271Z,5.07
2022-11-26T11:41:48.949Z,4.65
2022-11-26T11:43:05.073Z,5.55
2022-11-26T11:44:15.403Z,4.75
2022-11-26T11:45:28.082Z,5.60
2022-11-26T11:46:41.446Z,5.90
2022-11-26T11:47:44.420Z,5.55
2022-11-26T11:48:47.156Z,4.55
2022-11-26T11:49:56.713Z,5.63
2022-11-26T11:51:12.601Z,6.28
2022-11-26T11:52:30.791Z,6.80
2022-11-26T11:53:57.360Z,5.40
2022-11-26T11:55:12.783Z,6.40
2022-11-26T11:56:31.269Z,8.20
2022-11-26T11:57:54.961Z,7.85
2022-11-26T11:59:18.996Z,7.57
2022-11-26T12:00:42.814Z,7.43
2022-11-26T12:02:12.801Z,7.47
2022-11-26T12:03:33.744Z,7.07
2022-11-26T12:05:01.856Z,7.38
2022-11-26T12:06:48.840Z,5.90
2022-11-26T12:08:00.439Z,6.85
2022-11-26T12:09:16.168Z,5.60
2022-11-26T12:10:35.180Z,6.95
2022-11-26T12:11:52.953Z,5.93
2022-11-26T12:13:00.053Z,7.07
2022-11-26T12:14:18.875Z,8.02
2022-11-26T12:15:29.616Z,8.10
2022-11-26T12:16:36.666Z,7.75
2022-11-26T12:17:48.117Z,6.45
2022-11-26T12:18:58.091Z,7.55
2022-11-26T12:20:32.482Z,6.53
2022-11-26T12:21:57.369Z,6.57
2022-11-26T12:23:30.286Z,6.45
2022-11-26T12:24:40.553Z,7.20
2022-11-26T12:25:47.161Z,6.43
2022-11-26T12:26:57.340Z,5.70
2022-11-26T12:28:15.360Z,6.45
2022-11-26T12:29:17.584Z,6.50
2022-11-26T12:30:26.100Z,6.75
2022-11-26T12:31:45.627Z,6.20
2022-11-26T12:33:05.508Z,6.10
2022-11-26T12:34:30.194Z,5.95
2022-11-26T12:35:38.491Z,5.72
2022-11-26T12:36:55.274Z,5.75
2022-11-26T12:38:06.325Z,5.47
2022-11-26T12:39:42.693Z,5.22
2022-11-26T12:40:52.161Z,5.90
2022-11-26T12:42:28.629Z,4.80
2022-11-26T12:43:49.208Z,4.97
2022-11-26T12:44:52.641Z,4.65
2022-11-26T12:46:06.689Z,5.90
2022-11-26T12:47:34.748Z,4.60
2022-11-26T12:48:56.479Z,6.15
2022-11-26T12:50:25.479Z,5.90
2022-11-26T12:51:49.233Z,5.43
2022-11-26T12:53:16.524Z,5.50
2022-11-26T12:54:29.013Z,5.40
2022-11-26T12:55:50.016Z,6.55
2022-11-26T12:57:10.365Z,6.68
2022-11-26T12:58:19.341Z,5.90
2022-11-26T12:59:27.810Z,6.30
2022-11-26T13:00:36.754Z,6.18
2022-11-26T13:01:39.388Z,5.72
2022-11-26T13:02:45.559Z,5.72
2022-11-26T13:03:47.859Z,5.65
2022-11-26T13:04:51.886Z,5.00
2022-11-26T13:06:35.729Z,5.70
2022-11-26T13:08:27.223Z,4.72
2022-11-26T13:09:38.833Z,4.60
2022-11-26T13:11:08.604Z,5.22
2022-11-26T13:12:26.757Z,4.38
2022-11-26T13:13:48.264Z,4.40
2022-11-26T13:14:59.703Z,4.90
2022-11-26T13:16:23.467Z,4.95
2022-11-26T13:17:53.026Z,5.30
2022-11-26T13:19:06.883Z,4.80
2022-11-26T13:20:35.277Z,5.43
2022-11-26T13:22:03.367Z,4.65
2022-11-26T13:23:17.451Z,4.55
2022-11-26T13:24:43.500Z,4.10
2022-11-26T13:25:54.194Z,4.60
2022-11-26T13:27:17.509Z,4.53
2022-11-26T13:28:43.877Z,4.63
2022-11-26T13:30:01.112Z,4.13
2022-11-26T13:31:30.498Z,4.55
2022-11-26T13:33:01.416Z,3.92
2022-11-26T13:34:28.612Z,3.88
2022-11-26T13:35:59.283Z,4.10
2022-11-26T13:37:32.829Z,3.90
2022-11-26T13:38:48.900Z,3.40
2022-11-26T13:40:29.616Z,3.60
2022-11-26T13:41:56.011Z,3.17
2022-11-26T13:43:10.466Z,3.38
2022-11-26T13:44:51.527Z,3.78
2022-11-26T13:46:01.165Z,3.30
2022-11-26T13:47:10.915Z,3.25
2022-11-26T13:48:42.688Z,3.15
2022-11-26T13:50:02.380Z,3.20
2022-11-26T13:51:22.117Z,3.38
2022-11-26T13:52:44.079Z,2.83
2022-11-26T13:53:53.264Z,2.70
2022-11-26T13:55:12.135Z,2.83
2022-11-26T13:56:16.266Z,3.28
2022-11-26T13:57:24.567Z,2.50
2022-11-26T13:58:40.945Z,3.15
2022-11-26T13:59:48.428Z,2.60
2022-11-26T14:00:50.956Z,2.90
2022-11-26T14:01:53.398Z,2.70
2022-11-26T14:02:56.850Z,2.50
2022-11-26T14:03:59.371Z,3.30
2022-11-26T14:05:04.110Z,2.30
2022-11-26T14:06:08.274Z,2.40
2022-11-26T14:07:10.700Z,2.60
2022-11-26T14:08:34.453Z,2.70
2022-11-26T14:10:00.805Z,2.75
2022-11-26T14:11:03.925Z,2.58
2022-11-26T14:12:06.148Z,2.70
2022-11-26T14:13:10.060Z,2.35
2022-11-26T14:14:24.613Z,2.45
2022-11-26T14:15:41.996Z,1.80
2022-11-26T14:17:02.781Z,2.00
2022-11-26T14:18:05.331Z,2.10
2022-11-26T14:19:07.694Z,2.05
2022-11-26T14:20:10.808Z,1.83
2022-11-26T14:21:14.047Z,1.80
2022-11-26T14:22:19.258Z,1.75
2022-11-26T14:23:47.534Z,2.20
2022-11-26T14:24:52.547Z,1.80
2022-11-26T14:25:54.897Z,2.15
2022-11-26T14:26:57.207Z,2.10
2022-11-26T14:28:01.895Z,2.38
2022-11-26T14:29:11.803Z,2.47
2022-11-26T14:30:20.527Z,2.00
2022-11-26T14:31:32.484Z,2.10
2022-11-26T14:32:42.453Z,2.63
2022-11-26T14:33:46.663Z,2.80
2022-11-26T14:34:52.608Z,3.28
2022-11-26T14:35:56.983Z,2.22
2022-11-26T14:37:01.255Z,2.95
2022-11-26T14:38:07.032Z,2.10
2022-11-26T14:39:09.358Z,2.28
2022-11-26T14:40:27.537Z,2.47
2022-11-26T14:41:42.780Z,2.55
2022-11-26T14:42:45.033Z,2.92